Airfield :
LOGIN :

Register | Disclaimer

   EN    FR    IT 

 










Legend :    VFR   Marginal VFR   IFR   Intensive IFR   Very Intensive IFR
Visi :
Ceiling :
>= 8 km
>= 3000ft
5 to 8 km
1000 to 3000 ft
1500m to 5 km
500 to 1000 ft
800 to 1500m
200 to 500 ft
< 800m
< 200 ft
Symbols :   Thunderstorms  Fog  Heavy snow  Heavy precipitations  Wind > 20 kt
SIGMETs :     Misc.  Thunderstorms  Icing  Turbulence  Mountain Waves  Volcanic Ashes







- Airport Elevation : 63 ft
- IATA code : BZM


EHWO - Woensdrecht Airbase

CURRENT METAR :
  • 100925Z AUTO 27009KT 240V310 9999 NCD 06/04 Q1023 BLU 27010G20KT 9999 SCT025 TEMPO FEW015 SCT020CB

EXPIRED METARs :
  • 100855Z AUTO 27008KT 240V300 9999 NCD 06/04 Q1022 BLU 27010G20KT 9999 SCT025 TEMPO FEW015 SCT020CB
  • 100825Z AUTO 27007KT 240V310 9999 NCD 05/03 Q1022 BLU 27010G20KT 9999 SCT025 TEMPO FEW015 SCT020CB
  • 100755Z AUTO 27007KT 230V310 9999 FEW020 05/03 Q1022 BLU 27010G20KT 9999 SCT025 TEMPO FEW015 SCT020CB
  • 100725Z AUTO 27009KT 230V300 9999 NCD 05/03 Q1021 BLU 27010G20KT 9999 SCT025 TEMPO FEW015 SCT020CB
  • 100655Z AUTO 26008KT 9999 NCD 05/03 Q1021 BLU 27010G20KT 9999 SCT025 TEMPO FEW015 SCT020CB
  • 100631Z AUTO 27008KT 9999 NCD 05/03 Q1021 BLU 27010G20KT 9999 SCT025 TEMPO FEW015 SCT020CB
  • 100625Z AUTO 27008KT 230V290 9999 NCD 06/03 Q1021 BLU 27010G20KT 9999 SCT025 TEMPO FEW015 SCT020CB

TAF TAF EHWO
Valid from the 10 at 06:00 until the 10 at 18:00 UTC


100425Z 1006/1018 27009KT 9999 SCT025
TEMPO 1000/1018 29012G22KT -SHRA SCT018CB BKN025
BECMG 1011/1013 31013KT
BECMG 1017/1018 27007KT
No reported NOTAMs for that airfield.



MET'MAP, your aeronautical weather chart ! - Copyright ORBIFLY December 2007 - Disclaimer

ORBIFLY MET'MAP TEAM :

Programming & Development : Alexandra Zaïnal
Concept & Development : Baudouin d'Aumeries
Co-Development & Prog : Marc-Olivier Méhu
Technical & hardware support : Manuel Goepfert

Contact : metmap@orbifly.com




SOURCES & CREDITS :

   NOAA